createdAt,value
2022-12-18T00:03:13.035Z,101434.80
2022-12-18T00:08:23.357Z,101443.00
2022-12-18T00:13:33.541Z,101445.20
2022-12-18T00:18:43.958Z,101453.00
2022-12-18T00:23:55.528Z,101457.80
2022-12-18T00:29:08.562Z,101474.80
2022-12-18T00:34:18.917Z,101484.40
2022-12-18T00:39:28.669Z,101476.00
2022-12-18T00:44:38.387Z,101483.40
2022-12-18T00:49:48.254Z,101482.20
2022-12-18T00:55:00.694Z,101493.00
2022-12-18T01:00:19.875Z,101495.80
2022-12-18T01:05:30.184Z,101500.40
2022-12-18T01:10:42.507Z,101495.20
2022-12-18T01:15:55.730Z,101495.60
2022-12-18T01:21:10.924Z,101499.60
2022-12-18T01:26:22.474Z,101503.00
2022-12-18T01:31:35.858Z,101507.60
2022-12-18T01:36:46.318Z,101520.00
2022-12-18T01:42:05.333Z,101536.40
2022-12-18T01:47:20.967Z,101536.00
2022-12-18T01:52:34.206Z,101537.40
2022-12-18T01:57:44.672Z,101539.40
2022-12-18T02:02:55.724Z,101530.80
2022-12-18T02:08:15.883Z,101528.00
2022-12-18T02:13:38.483Z,101538.40
2022-12-18T02:18:54.703Z,101546.20
2022-12-18T02:24:23.854Z,101549.80
2022-12-18T02:29:40.700Z,101551.60
2022-12-18T02:34:53.325Z,101555.00
2022-12-18T02:40:05.977Z,101555.60
2022-12-18T02:45:16.461Z,101563.00
2022-12-18T02:50:37.464Z,101557.40
2022-12-18T02:56:01.479Z,101567.20
2022-12-18T03:01:19.531Z,101576.40
2022-12-18T03:06:34.992Z,101580.60
2022-12-18T03:12:14.808Z,101589.60
2022-12-18T03:17:29.455Z,101593.20
2022-12-18T03:22:43.191Z,101602.80
2022-12-18T03:27:59.547Z,101611.00
2022-12-18T03:33:20.795Z,101598.60
2022-12-18T03:38:30.714Z,101596.20
2022-12-18T03:43:51.979Z,101602.40
2022-12-18T03:49:14.188Z,101601.80
2022-12-18T03:54:26.249Z,101611.20
2022-12-18T03:59:37.713Z,101628.60
2022-12-18T04:04:50.388Z,101623.80
2022-12-18T04:10:03.794Z,101627.00
2022-12-18T04:15:16.006Z,101626.40
2022-12-18T04:20:26.003Z,101635.40
2022-12-18T04:25:35.820Z,101652.00
2022-12-18T04:30:45.769Z,101650.00
2022-12-18T04:35:55.535Z,101652.00
2022-12-18T04:41:05.327Z,101666.60
2022-12-18T04:46:15.511Z,101678.80
2022-12-18T04:51:26.793Z,101687.60
2022-12-18T04:56:37.683Z,101684.40
2022-12-18T05:01:47.509Z,101688.00
2022-12-18T05:06:58.712Z,101689.80
2022-12-18T05:12:09.435Z,101698.00
2022-12-18T05:17:19.302Z,101704.00
2022-12-18T05:22:29.015Z,101710.80
2022-12-18T05:27:38.829Z,101725.40
2022-12-18T05:32:49.091Z,101724.80
2022-12-18T05:37:59.097Z,101734.40
2022-12-18T05:43:09.475Z,101742.40
2022-12-18T05:48:19.911Z,101758.00
2022-12-18T05:53:29.715Z,101757.60
2022-12-18T05:58:39.761Z,101762.40
2022-12-18T06:03:50.869Z,101769.00
2022-12-18T06:09:02.582Z,101776.80
2022-12-18T06:14:13.801Z,101789.20
2022-12-18T06:19:23.474Z,101799.20
2022-12-18T06:24:34.378Z,101797.20
2022-12-18T06:29:44.150Z,101814.80
2022-12-18T06:34:54.284Z,101810.80
2022-12-18T06:40:04.042Z,101813.80
2022-12-18T06:45:15.162Z,101823.00
2022-12-18T06:50:25.411Z,101822.20
2022-12-18T06:55:35.320Z,101836.20
2022-12-18T07:00:45.152Z,101839.20
2022-12-18T07:05:55.510Z,101855.00
2022-12-18T07:11:07.388Z,101862.60
2022-12-18T07:16:24.653Z,101878.20
2022-12-18T07:21:35.627Z,101890.00
2022-12-18T07:26:47.975Z,101891.00
2022-12-18T07:31:58.222Z,101901.20
2022-12-18T07:37:08.111Z,101905.40
2022-12-18T07:42:33.262Z,101910.20
2022-12-18T07:47:43.845Z,101912.60
2022-12-18T07:52:53.765Z,101921.00
2022-12-18T07:58:06.855Z,101929.60
2022-12-18T08:03:16.743Z,101919.60
2022-12-18T08:08:26.555Z,101924.80
2022-12-18T08:13:36.437Z,101923.00
2022-12-18T08:18:46.546Z,101916.80
2022-12-18T08:23:58.313Z,101916.80
2022-12-18T08:29:08.267Z,101932.80
2022-12-18T08:34:18.178Z,101942.00
2022-12-18T08:39:27.941Z,101944.40
2022-12-18T08:44:40.448Z,101950.00
2022-12-18T08:49:50.235Z,101955.60
2022-12-18T08:55:00.019Z,101963.20
2022-12-18T09:00:13.065Z,101972.60
2022-12-18T09:05:23.068Z,101977.60
2022-12-18T09:10:33.257Z,102004.60
2022-12-18T09:15:48.060Z,102013.80
2022-12-18T09:20:58.069Z,102005.80
2022-12-18T09:26:08.183Z,101984.00
2022-12-18T09:31:20.132Z,101997.40
2022-12-18T09:36:30.099Z,102000.60
2022-12-18T09:41:51.834Z,102010.80
2022-12-18T09:47:15.823Z,102016.20
2022-12-18T09:52:32.278Z,102022.40
2022-12-18T10:08:04.960Z,102007.80
2022-12-18T10:13:32.127Z,102003.20
2022-12-18T10:19:09.959Z,102006.00
2022-12-18T10:24:28.505Z,102011.20
2022-12-18T10:29:38.545Z,102006.40
2022-12-18T10:34:58.276Z,101999.80
2022-12-18T10:40:22.277Z,101998.60
2022-12-18T10:45:33.003Z,102014.40
2022-12-18T10:51:10.468Z,102000.00
2022-12-18T10:56:25.026Z,101997.60
2022-12-18T11:01:51.068Z,102005.20
2022-12-18T11:07:05.885Z,102015.40
2022-12-18T11:12:27.320Z,102008.40
2022-12-18T11:17:40.403Z,102001.00
2022-12-18T11:23:03.715Z,102008.80
2022-12-18T11:28:37.502Z,102001.60
2022-12-18T11:34:12.255Z,102023.00
2022-12-18T11:39:33.945Z,102020.00
2022-12-18T11:44:52.760Z,102022.80
2022-12-18T11:50:22.058Z,102019.20
2022-12-18T11:55:44.381Z,102020.20
2022-12-18T12:01:08.859Z,102025.80
2022-12-18T12:06:27.822Z,102033.20
2022-12-18T12:11:59.109Z,102049.40
2022-12-18T12:17:22.674Z,102045.60
2022-12-18T12:22:47.696Z,102055.80
2022-12-18T12:28:16.152Z,102053.60
2022-12-18T12:33:43.685Z,102066.60
2022-12-18T12:39:01.122Z,102073.00
2022-12-18T12:44:19.850Z,102068.60
2022-12-18T12:49:39.071Z,102059.60
2022-12-18T12:54:52.301Z,102057.20
2022-12-18T13:00:12.212Z,102053.60
2022-12-18T13:05:34.275Z,102049.60
2022-12-18T13:10:46.398Z,102047.60
2022-12-18T13:16:11.827Z,102063.60
2022-12-18T13:21:30.392Z,102064.60
2022-12-18T13:26:40.522Z,102066.40
2022-12-18T13:32:25.249Z,102076.80
2022-12-18T13:37:55.991Z,102080.40
2022-12-18T13:43:16.394Z,102079.00
2022-12-18T13:48:30.901Z,102084.00
2022-12-18T13:53:49.356Z,102072.20
2022-12-18T13:59:24.556Z,102079.40
2022-12-18T14:04:37.727Z,102089.00
2022-12-18T14:09:53.577Z,102100.00
2022-12-18T14:15:29.414Z,102105.80
2022-12-18T14:20:46.508Z,102104.40
2022-12-18T14:26:05.798Z,102114.80
2022-12-18T14:31:25.937Z,102124.40
2022-12-18T14:36:35.646Z,102131.00
2022-12-18T14:41:46.138Z,102126.80
2022-12-18T14:46:57.129Z,102128.80
2022-12-18T14:52:20.212Z,102130.40
2022-12-18T14:57:39.250Z,102133.00
2022-12-18T15:02:52.256Z,102131.40
2022-12-18T15:08:04.797Z,102137.00
2022-12-18T15:13:27.101Z,102133.60
2022-12-18T15:18:49.265Z,102138.40
2022-12-18T15:23:59.479Z,102135.80
2022-12-18T15:29:21.355Z,102153.80
2022-12-18T15:34:31.550Z,102144.80
2022-12-18T15:39:41.281Z,102145.80
2022-12-18T15:44:51.288Z,102147.00
2022-12-18T15:50:01.278Z,102141.80
2022-12-18T15:55:33.008Z,102136.40
2022-12-18T16:00:44.571Z,102131.20
2022-12-18T16:05:57.233Z,102142.00
2022-12-18T16:11:18.157Z,102141.00
2022-12-18T16:16:29.802Z,102133.00
2022-12-18T16:21:41.126Z,102136.40
2022-12-18T16:26:52.667Z,102145.00
2022-12-18T16:32:04.036Z,102145.40
2022-12-18T16:37:17.308Z,102139.00
2022-12-18T16:42:27.282Z,102154.20
2022-12-18T16:47:38.677Z,102140.40
2022-12-18T16:52:48.520Z,102142.60
2022-12-18T16:57:58.249Z,102146.80
2022-12-18T17:03:08.062Z,102147.00
2022-12-18T17:08:18.244Z,102154.20
2022-12-18T17:13:31.898Z,102161.40
2022-12-18T17:18:41.692Z,102186.20
2022-12-18T17:23:51.746Z,102195.00
2022-12-18T17:29:03.471Z,102181.80
2022-12-18T17:34:14.084Z,102176.20
2022-12-18T17:39:25.455Z,102176.60
2022-12-18T17:44:35.629Z,102174.60
2022-12-18T17:49:45.739Z,102156.60
2022-12-18T17:54:55.735Z,102142.00
2022-12-18T18:00:06.957Z,102146.20
2022-12-18T18:05:17.253Z,102125.40
2022-12-18T18:10:27.185Z,102141.40
2022-12-18T18:15:37.245Z,102144.20
2022-12-18T18:20:49.171Z,102127.20
2022-12-18T18:26:03.462Z,102120.60
2022-12-18T18:31:15.192Z,102121.20
2022-12-18T18:36:25.763Z,102129.60
2022-12-18T18:41:35.518Z,102124.80
2022-12-18T18:46:45.381Z,102144.00
2022-12-18T18:51:55.229Z,102137.20
2022-12-18T18:57:20.510Z,102143.40
2022-12-18T19:02:32.353Z,102133.40
2022-12-18T19:07:42.543Z,102114.60
2022-12-18T19:13:09.794Z,102119.20
2022-12-18T19:18:20.218Z,102112.00
2022-12-18T19:23:31.390Z,102109.20
2022-12-18T19:28:42.052Z,102104.60
2022-12-18T19:33:52.412Z,102109.00
2022-12-18T19:39:09.231Z,102111.40
2022-12-18T19:44:20.826Z,102113.40
2022-12-18T19:49:31.770Z,102123.60
2022-12-18T19:54:42.141Z,102123.60
2022-12-18T19:59:51.967Z,102126.40
2022-12-18T20:05:01.943Z,102121.00
2022-12-18T20:10:17.362Z,102104.60
2022-12-18T20:15:28.768Z,102108.20
2022-12-18T20:20:38.845Z,102099.00
2022-12-18T20:25:50.438Z,102098.00
2022-12-18T20:31:06.817Z,102099.60
2022-12-18T20:36:25.807Z,102092.40
2022-12-18T20:41:37.898Z,102086.40
2022-12-18T20:46:49.363Z,102087.60
2022-12-18T20:52:03.073Z,102096.60
2022-12-18T20:57:13.263Z,102098.40
2022-12-18T21:02:23.231Z,102104.80
2022-12-18T21:07:33.346Z,102103.20
2022-12-18T21:13:01.513Z,102095.80
2022-12-18T21:18:13.298Z,102066.00
2022-12-18T21:23:23.066Z,102053.20
2022-12-18T21:28:32.985Z,102045.40
2022-12-18T21:33:45.472Z,102043.20
2022-12-18T21:38:58.082Z,102041.00
2022-12-18T21:44:08.528Z,102032.20
2022-12-18T21:49:21.520Z,102033.80
2022-12-18T21:54:32.411Z,102050.00
2022-12-18T21:59:44.773Z,102058.40
2022-12-18T22:04:54.827Z,102063.00
2022-12-18T22:10:06.064Z,102063.40
2022-12-18T22:15:21.367Z,102051.80
2022-12-18T22:20:32.693Z,102059.40
2022-12-18T22:25:42.534Z,102062.40
2022-12-18T22:30:54.086Z,102059.20
2022-12-18T22:36:13.445Z,102045.60
2022-12-18T22:41:24.903Z,102045.60
2022-12-18T22:46:38.926Z,102046.00
2022-12-18T22:51:50.024Z,102052.00
2022-12-18T22:57:00.253Z,102053.60
2022-12-18T23:02:09.976Z,102044.80
2022-12-18T23:07:20.307Z,102053.60
2022-12-18T23:12:30.070Z,102060.20
2022-12-18T23:17:40.145Z,102059.60
2022-12-18T23:22:50.126Z,102057.80
2022-12-18T23:28:00.167Z,102053.40
2022-12-18T23:33:09.843Z,102060.80
2022-12-18T23:38:20.029Z,102069.20
2022-12-18T23:43:30.292Z,102061.00
2022-12-18T23:48:40.360Z,102051.40
2022-12-18T23:53:50.123Z,102056.00
2022-12-18T23:59:00.373Z,102061.60
